sensor_id;sensor_type;location;lat;lon;timestamp;pressure;altitude;pressure_sealevel;temperature;humidity
39177;BME280;24904;52.208;21.192;2023-05-22T00:03:11;101006.35;;;11.62;68.41
39177;BME280;24904;52.208;21.192;2023-05-22T00:08:48;101006.91;;;11.50;68.51
39177;BME280;24904;52.208;21.192;2023-05-22T00:14:12;101011.76;;;11.44;68.79
39177;BME280;24904;52.208;21.192;2023-05-22T00:19:35;101005.98;;;11.37;69.03
39177;BME280;24904;52.208;21.192;2023-05-22T00:25:09;101000.82;;;11.34;69.24
39177;BME280;24904;52.208;21.192;2023-05-22T00:30:44;100998.34;;;11.27;69.42
39177;BME280;24904;52.208;21.192;2023-05-22T00:36:07;100995.58;;;11.26;69.52
39177;BME280;24904;52.208;21.192;2023-05-22T00:41:30;100986.84;;;11.21;69.93
39177;BME280;24904;52.208;21.192;2023-05-22T00:46:59;100992.23;;;11.37;70.13
39177;BME280;24904;52.208;21.192;2023-05-22T00:52:24;100991.59;;;11.32;70.15
39177;BME280;24904;52.208;21.192;2023-05-22T00:57:43;100987.13;;;11.20;69.97
39177;BME280;24904;52.208;21.192;2023-05-22T01:03:15;100993.30;;;11.23;69.93
39177;BME280;24904;52.208;21.192;2023-05-22T01:08:40;100992.48;;;11.15;69.80
39177;BME280;24904;52.208;21.192;2023-05-22T01:14:13;100996.48;;;11.03;69.66
39177;BME280;24904;52.208;21.192;2023-05-22T01:20:01;100995.41;;;10.93;69.61
39177;BME280;24904;52.208;21.192;2023-05-22T01:25:48;100999.02;;;10.84;69.77
39177;BME280;24904;52.208;21.192;2023-05-22T01:31:39;100999.40;;;10.72;69.87
39177;BME280;24904;52.208;21.192;2023-05-22T01:37:08;100997.30;;;10.70;70.04
39177;BME280;24904;52.208;21.192;2023-05-22T01:42:32;100997.52;;;10.62;70.00
39177;BME280;24904;52.208;21.192;2023-05-22T01:48:03;100992.93;;;10.45;70.02
39177;BME280;24904;52.208;21.192;2023-05-22T01:53:34;101006.39;;;10.43;70.26
39177;BME280;24904;52.208;21.192;2023-05-22T01:59:13;100996.66;;;10.33;70.37
39177;BME280;24904;52.208;21.192;2023-05-22T02:04:44;101004.36;;;10.33;70.55
39177;BME280;24904;52.208;21.192;2023-05-22T02:10:07;101002.03;;;10.18;70.62
39177;BME280;24904;52.208;21.192;2023-05-22T02:16:02;101003.61;;;10.15;70.82
39177;BME280;24904;52.208;21.192;2023-05-22T02:21:25;101005.55;;;10.08;70.77
39177;BME280;24904;52.208;21.192;2023-05-22T02:27:24;101007.27;;;10.07;70.89
39177;BME280;24904;52.208;21.192;2023-05-22T02:32:59;101003.81;;;10.03;70.98
39177;BME280;24904;52.208;21.192;2023-05-22T02:38:26;101007.18;;;9.97;71.07
39177;BME280;24904;52.208;21.192;2023-05-22T02:43:40;101002.36;;;9.92;71.10
39177;BME280;24904;52.208;21.192;2023-05-22T02:48:54;100999.14;;;9.92;71.19
39177;BME280;24904;52.208;21.192;2023-05-22T02:54:02;100995.16;;;9.88;71.15
39177;BME280;24904;52.208;21.192;2023-05-22T02:59:09;100992.84;;;9.80;71.57
39177;BME280;24904;52.208;21.192;2023-05-22T03:04:13;100993.55;;;9.80;71.37
39177;BME280;24904;52.208;21.192;2023-05-22T03:09:17;100987.69;;;9.78;71.92
39177;BME280;24904;52.208;21.192;2023-05-22T03:14:21;100983.14;;;9.78;71.74
39177;BME280;24904;52.208;21.192;2023-05-22T03:19:24;100982.09;;;9.76;71.93
39177;BME280;24904;52.208;21.192;2023-05-22T03:24:28;100978.92;;;9.78;72.22
39177;BME280;24904;52.208;21.192;2023-05-22T03:29:31;100976.02;;;9.81;72.52
39177;BME280;24904;52.208;21.192;2023-05-22T03:34:34;100978.88;;;9.86;72.71
39177;BME280;24904;52.208;21.192;2023-05-22T03:40:16;100981.71;;;9.97;72.96
39177;BME280;24904;52.208;21.192;2023-05-22T03:45:40;100976.88;;;10.05;72.67
39177;BME280;24904;52.208;21.192;2023-05-22T03:50:46;100981.39;;;10.06;72.87
39177;BME280;24904;52.208;21.192;2023-05-22T03:55:51;100983.79;;;10.12;73.16
39177;BME280;24904;52.208;21.192;2023-05-22T04:09:14;100987.09;;;10.39;73.71
39177;BME280;24904;52.208;21.192;2023-05-22T04:14:17;100985.67;;;10.54;73.91
39177;BME280;24904;52.208;21.192;2023-05-22T04:19:21;100984.05;;;10.67;73.87
39177;BME280;24904;52.208;21.192;2023-05-22T04:24:24;100977.52;;;10.81;73.78
39177;BME280;24904;52.208;21.192;2023-05-22T04:29:28;100975.69;;;10.96;73.98
39177;BME280;24904;52.208;21.192;2023-05-22T04:34:31;100966.65;;;11.12;73.93
39177;BME280;24904;52.208;21.192;2023-05-22T04:39:34;100965.94;;;11.25;73.98
39177;BME280;24904;52.208;21.192;2023-05-22T04:44:38;100958.09;;;11.43;74.18
39177;BME280;24904;52.208;21.192;2023-05-22T04:49:48;100955.20;;;11.59;74.01
39177;BME280;24904;52.208;21.192;2023-05-22T04:55:01;100951.92;;;11.74;73.95
39177;BME280;24904;52.208;21.192;2023-05-22T05:00:10;100954.96;;;11.97;74.14
39177;BME280;24904;52.208;21.192;2023-05-22T05:05:17;100952.42;;;12.18;74.16
39177;BME280;24904;52.208;21.192;2023-05-22T05:10:24;100947.84;;;12.33;74.04
39177;BME280;24904;52.208;21.192;2023-05-22T05:24:35;100963.77;;;13.10;72.85
39177;BME280;24904;52.208;21.192;2023-05-22T05:29:46;100963.84;;;13.39;72.40
39177;BME280;24904;52.208;21.192;2023-05-22T05:38:06;100965.70;;;13.83;71.37
39177;BME280;24904;52.208;21.192;2023-05-22T05:43:19;100969.28;;;14.11;70.38
39177;BME280;24904;52.208;21.192;2023-05-22T05:48:39;100963.77;;;14.42;69.64
39177;BME280;24904;52.208;21.192;2023-05-22T05:54:13;100963.06;;;14.74;69.65
39177;BME280;24904;52.208;21.192;2023-05-22T05:59:23;100966.54;;;14.99;69.24
39177;BME280;24904;52.208;21.192;2023-05-22T06:05:47;100957.91;;;15.31;69.01
39177;BME280;24904;52.208;21.192;2023-05-22T06:11:06;100957.23;;;15.60;68.84
39177;BME280;24904;52.208;21.192;2023-05-22T06:16:18;100954.46;;;15.83;67.36
39177;BME280;24904;52.208;21.192;2023-05-22T06:21:29;100951.97;;;16.05;66.27
39177;BME280;24904;52.208;21.192;2023-05-22T06:26:39;100954.14;;;16.27;65.81
39177;BME280;24904;52.208;21.192;2023-05-22T06:31:49;100946.66;;;16.36;64.97
39177;BME280;24904;52.208;21.192;2023-05-22T06:37:05;100942.17;;;16.54;63.67
39177;BME280;24904;52.208;21.192;2023-05-22T06:42:40;100943.77;;;16.74;63.93
39177;BME280;24904;52.208;21.192;2023-05-22T06:48:19;100931.20;;;16.82;63.66
39177;BME280;24904;52.208;21.192;2023-05-22T06:53:37;100929.40;;;17.05;62.36
39177;BME280;24904;52.208;21.192;2023-05-22T06:58:59;100938.16;;;17.43;59.16
39177;BME280;24904;52.208;21.192;2023-05-22T07:04:25;100938.23;;;17.75;58.55
39177;BME280;24904;52.208;21.192;2023-05-22T07:09:38;100936.93;;;18.02;57.18
39177;BME280;24904;52.208;21.192;2023-05-22T07:14:46;100934.67;;;18.27;56.36
39177;BME280;24904;52.208;21.192;2023-05-22T07:19:59;100934.76;;;18.61;55.39
39177;BME280;24904;52.208;21.192;2023-05-22T07:25:08;100933.26;;;18.91;53.75
39177;BME280;24904;52.208;21.192;2023-05-22T07:30:15;100929.40;;;19.10;52.73
39177;BME280;24904;52.208;21.192;2023-05-22T07:35:22;100929.65;;;19.30;52.73
39177;BME280;24904;52.208;21.192;2023-05-22T07:40:29;100923.77;;;19.55;51.20
39177;BME280;24904;52.208;21.192;2023-05-22T07:45:36;100915.90;;;19.78;48.74
39177;BME280;24904;52.208;21.192;2023-05-22T07:51:10;100912.75;;;20.07;48.40
39177;BME280;24904;52.208;21.192;2023-05-22T07:56:18;100914.15;;;20.24;46.29
39177;BME280;24904;52.208;21.192;2023-05-22T08:01:28;100907.67;;;20.42;46.44
39177;BME280;24904;52.208;21.192;2023-05-22T08:06:38;100911.25;;;20.61;46.41
39177;BME280;24904;52.208;21.192;2023-05-22T08:11:48;100909.86;;;20.85;45.47
39177;BME280;24904;52.208;21.192;2023-05-22T08:16:56;100903.59;;;21.01;44.48
39177;BME280;24904;52.208;21.192;2023-05-22T08:22:03;100900.79;;;21.11;44.55
39177;BME280;24904;52.208;21.192;2023-05-22T08:27:10;100899.04;;;21.28;44.24
39177;BME280;24904;52.208;21.192;2023-05-22T08:32:18;100901.10;;;21.40;43.15
39177;BME280;24904;52.208;21.192;2023-05-22T08:37:29;100898.30;;;21.39;42.67
39177;BME280;24904;52.208;21.192;2023-05-22T08:42:38;100898.46;;;21.42;42.03
39177;BME280;24904;52.208;21.192;2023-05-22T08:47:44;100897.91;;;21.55;41.41
39177;BME280;24904;52.208;21.192;2023-05-22T08:52:54;100900.39;;;21.57;40.16
39177;BME280;24904;52.208;21.192;2023-05-22T08:58:01;100894.01;;;21.57;40.10
39177;BME280;24904;52.208;21.192;2023-05-22T09:03:09;100897.58;;;21.52;40.10
39177;BME280;24904;52.208;21.192;2023-05-22T09:08:17;100894.63;;;21.43;39.82
39177;BME280;24904;52.208;21.192;2023-05-22T09:13:38;100886.66;;;21.42;39.90
39177;BME280;24904;52.208;21.192;2023-05-22T09:18:49;100879.27;;;21.35;39.29
39177;BME280;24904;52.208;21.192;2023-05-22T09:24:01;100881.65;;;21.24;38.96
39177;BME280;24904;52.208;21.192;2023-05-22T09:29:19;100880.11;;;21.15;38.54
39177;BME280;24904;52.208;21.192;2023-05-22T09:34:27;100873.21;;;21.13;38.47
39177;BME280;24904;52.208;21.192;2023-05-22T09:39:43;100868.21;;;21.26;38.93
39177;BME280;24904;52.208;21.192;2023-05-22T09:44:53;100865.36;;;21.42;38.83
39177;BME280;24904;52.208;21.192;2023-05-22T09:50:03;100862.90;;;21.50;38.86
39177;BME280;24904;52.208;21.192;2023-05-22T09:55:14;100862.79;;;21.63;38.55
39177;BME280;24904;52.208;21.192;2023-05-22T10:00:31;100856.90;;;21.77;38.30
39177;BME280;24904;52.208;21.192;2023-05-22T10:05:42;100855.27;;;21.87;38.59
39177;BME280;24904;52.208;21.192;2023-05-22T10:10:58;100858.80;;;21.87;37.91
39177;BME280;24904;52.208;21.192;2023-05-22T10:16:06;100854.95;;;21.81;37.77
39177;BME280;24904;52.208;21.192;2023-05-22T10:21:17;100848.52;;;21.74;37.92
39177;BME280;24904;52.208;21.192;2023-05-22T10:26:26;100841.67;;;21.71;37.88
39177;BME280;24904;52.208;21.192;2023-05-22T10:31:38;100843.90;;;21.65;37.64
39177;BME280;24904;52.208;21.192;2023-05-22T10:37:00;100847.37;;;21.55;37.85
39177;BME280;24904;52.208;21.192;2023-05-22T10:42:18;100847.19;;;21.44;38.18
39177;BME280;24904;52.208;21.192;2023-05-22T10:47:28;100847.77;;;21.39;38.24
39177;BME280;24904;52.208;21.192;2023-05-22T10:52:42;100842.11;;;21.36;37.97
39177;BME280;24904;52.208;21.192;2023-05-22T10:57:53;100840.45;;;21.32;37.96
39177;BME280;24904;52.208;21.192;2023-05-22T11:03:04;100828.39;;;21.23;38.36
39177;BME280;24904;52.208;21.192;2023-05-22T11:13:59;100823.41;;;21.28;38.09
39177;BME280;24904;52.208;21.192;2023-05-22T11:19:13;100822.38;;;21.34;38.52
39177;BME280;24904;52.208;21.192;2023-05-22T11:24:37;100817.36;;;21.54;38.16
39177;BME280;24904;52.208;21.192;2023-05-22T11:29:53;100808.73;;;21.69;38.08
39177;BME280;24904;52.208;21.192;2023-05-22T11:35:06;100795.64;;;21.80;38.10
39177;BME280;24904;52.208;21.192;2023-05-22T11:40:22;100797.67;;;21.96;38.12
39177;BME280;24904;52.208;21.192;2023-05-22T11:45:43;100786.71;;;22.01;37.63
39177;BME280;24904;52.208;21.192;2023-05-22T11:50:57;100790.45;;;22.03;37.47
39177;BME280;24904;52.208;21.192;2023-05-22T11:56:22;100792.01;;;22.07;37.16
39177;BME280;24904;52.208;21.192;2023-05-22T12:01:41;100788.78;;;22.05;36.29
39177;BME280;24904;52.208;21.192;2023-05-22T12:07:04;100786.95;;;22.02;36.82
39177;BME280;24904;52.208;21.192;2023-05-22T12:12:24;100785.52;;;21.96;36.82
39177;BME280;24904;52.208;21.192;2023-05-22T12:17:38;100787.61;;;21.90;36.39
39177;BME280;24904;52.208;21.192;2023-05-22T12:23:01;100781.71;;;21.85;36.41
39177;BME280;24904;52.208;21.192;2023-05-22T12:28:19;100774.51;;;21.88;36.31
39177;BME280;24904;52.208;21.192;2023-05-22T12:33:38;100765.91;;;21.86;36.45
39177;BME280;24904;52.208;21.192;2023-05-22T12:38:59;100756.83;;;21.83;36.40
39177;BME280;24904;52.208;21.192;2023-05-22T12:44:16;100754.54;;;21.82;35.83
39177;BME280;24904;52.208;21.192;2023-05-22T12:49:36;100752.90;;;21.78;36.06
39177;BME280;24904;52.208;21.192;2023-05-22T12:54:53;100750.04;;;21.80;36.10
39177;BME280;24904;52.208;21.192;2023-05-22T13:00:12;100744.13;;;21.81;36.28
39177;BME280;24904;52.208;21.192;2023-05-22T13:05:28;100741.89;;;21.88;36.20
39177;BME280;24904;52.208;21.192;2023-05-22T13:10:41;100739.93;;;21.92;36.34
39177;BME280;24904;52.208;21.192;2023-05-22T13:15:55;100732.63;;;21.92;36.27
39177;BME280;24904;52.208;21.192;2023-05-22T13:21:13;100744.77;;;22.02;35.91
39177;BME280;24904;52.208;21.192;2023-05-22T13:26:33;100735.16;;;22.03;35.96
39177;BME280;24904;52.208;21.192;2023-05-22T13:39:22;100725.98;;;22.03;35.12
39177;BME280;24904;52.208;21.192;2023-05-22T13:44:39;100719.92;;;21.97;34.88
39177;BME280;24904;52.208;21.192;2023-05-22T13:49:57;100721.04;;;21.97;35.25
39177;BME280;24904;52.208;21.192;2023-05-22T13:55:16;100714.21;;;22.01;35.60
39177;BME280;24904;52.208;21.192;2023-05-22T14:00:42;100708.59;;;21.99;35.26
39177;BME280;24904;52.208;21.192;2023-05-22T14:05:58;100707.20;;;21.89;34.89
39177;BME280;24904;52.208;21.192;2023-05-22T14:11:14;100708.20;;;21.75;35.25
39177;BME280;24904;52.208;21.192;2023-05-22T14:16:25;100706.92;;;21.69;35.19
39177;BME280;24904;52.208;21.192;2023-05-22T14:21:29;100703.20;;;21.65;35.37
39177;BME280;24904;52.208;21.192;2023-05-22T14:26:39;100698.06;;;21.61;35.36
39177;BME280;24904;52.208;21.192;2023-05-22T14:31:46;100688.25;;;21.55;35.53
39177;BME280;24904;52.208;21.192;2023-05-22T14:36:58;100689.23;;;21.54;35.52
39177;BME280;24904;52.208;21.192;2023-05-22T14:42:02;100684.81;;;21.52;35.40
39177;BME280;24904;52.208;21.192;2023-05-22T14:47:07;100683.31;;;21.51;35.24
39177;BME280;24904;52.208;21.192;2023-05-22T14:52:13;100687.11;;;21.50;35.03
39177;BME280;24904;52.208;21.192;2023-05-22T14:57:18;100679.92;;;21.42;34.41
39177;BME280;24904;52.208;21.192;2023-05-22T15:02:22;100681.91;;;21.37;34.95
39177;BME280;24904;52.208;21.192;2023-05-22T15:07:27;100672.89;;;21.34;35.24
39177;BME280;24904;52.208;21.192;2023-05-22T15:12:33;100672.81;;;21.31;35.67
39177;BME280;24904;52.208;21.192;2023-05-22T15:17:41;100666.18;;;21.28;35.74
39177;BME280;24904;52.208;21.192;2023-05-22T15:22:48;100664.41;;;21.27;35.48
39177;BME280;24904;52.208;21.192;2023-05-22T15:27:57;100666.61;;;21.23;35.48
39177;BME280;24904;52.208;21.192;2023-05-22T15:33:07;100658.39;;;21.18;35.63
39177;BME280;24904;52.208;21.192;2023-05-22T15:38:17;100655.93;;;21.15;35.37
39177;BME280;24904;52.208;21.192;2023-05-22T15:43:25;100647.20;;;21.08;35.49
39177;BME280;24904;52.208;21.192;2023-05-22T15:48:36;100642.48;;;21.08;35.52
39177;BME280;24904;52.208;21.192;2023-05-22T15:53:44;100643.63;;;21.09;35.47
39177;BME280;24904;52.208;21.192;2023-05-22T15:58:49;100637.95;;;21.07;35.48
39177;BME280;24904;52.208;21.192;2023-05-22T16:03:56;100633.00;;;21.01;35.34
39177;BME280;24904;52.208;21.192;2023-05-22T16:09:01;100632.54;;;20.98;35.33
39177;BME280;24904;52.208;21.192;2023-05-22T16:14:09;100635.60;;;20.94;35.38
39177;BME280;24904;52.208;21.192;2023-05-22T16:19:22;100632.41;;;20.88;35.23
39177;BME280;24904;52.208;21.192;2023-05-22T16:24:39;100628.59;;;20.85;35.44
39177;BME280;24904;52.208;21.192;2023-05-22T16:29:44;100629.63;;;20.82;35.32
39177;BME280;24904;52.208;21.192;2023-05-22T16:34:48;100621.09;;;20.79;35.23
39177;BME280;24904;52.208;21.192;2023-05-22T16:39:54;100619.85;;;20.75;35.45
39177;BME280;24904;52.208;21.192;2023-05-22T16:45:08;100620.91;;;20.71;35.62
39177;BME280;24904;52.208;21.192;2023-05-22T16:50:18;100621.81;;;20.66;35.49
39177;BME280;24904;52.208;21.192;2023-05-22T16:55:29;100626.69;;;20.63;36.06
39177;BME280;24904;52.208;21.192;2023-05-22T17:00:39;100617.80;;;20.59;36.22
39177;BME280;24904;52.208;21.192;2023-05-22T17:05:49;100619.90;;;20.55;36.43
39177;BME280;24904;52.208;21.192;2023-05-22T17:11:00;100618.69;;;20.46;36.35
39177;BME280;24904;52.208;21.192;2023-05-22T17:16:07;100622.40;;;20.44;36.57
39177;BME280;24904;52.208;21.192;2023-05-22T17:21:19;100626.00;;;20.39;36.90
39177;BME280;24904;52.208;21.192;2023-05-22T17:26:33;100626.68;;;20.31;37.22
39177;BME280;24904;52.208;21.192;2023-05-22T17:31:39;100625.80;;;20.21;37.50
39177;BME280;24904;52.208;21.192;2023-05-22T17:36:44;100628.10;;;20.12;37.41
39177;BME280;24904;52.208;21.192;2023-05-22T17:41:50;100631.34;;;20.06;37.58
39177;BME280;24904;52.208;21.192;2023-05-22T17:46:58;100631.90;;;19.96;37.99
39177;BME280;24904;52.208;21.192;2023-05-22T17:52:04;100628.02;;;19.86;38.17
39177;BME280;24904;52.208;21.192;2023-05-22T17:57:11;100624.30;;;19.74;38.65
39177;BME280;24904;52.208;21.192;2023-05-22T18:02:21;100619.96;;;19.57;39.20
39177;BME280;24904;52.208;21.192;2023-05-22T18:07:27;100617.30;;;19.39;40.08
39177;BME280;24904;52.208;21.192;2023-05-22T18:12:31;100614.26;;;19.21;40.71
39177;BME280;24904;52.208;21.192;2023-05-22T18:17:38;100615.29;;;19.01;41.67
39177;BME280;24904;52.208;21.192;2023-05-22T18:22:43;100614.23;;;18.77;42.88
39177;BME280;24904;52.208;21.192;2023-05-22T18:27:47;100612.41;;;18.53;43.79
39177;BME280;24904;52.208;21.192;2023-05-22T18:32:52;100611.77;;;18.26;44.65
39177;BME280;24904;52.208;21.192;2023-05-22T18:37:57;100611.54;;;18.01;45.35
39177;BME280;24904;52.208;21.192;2023-05-22T18:43:44;100611.91;;;17.81;45.88
39177;BME280;24904;52.208;21.192;2023-05-22T18:48:48;100613.89;;;17.57;46.52
39177;BME280;24904;52.208;21.192;2023-05-22T18:53:54;100616.77;;;17.32;46.99
39177;BME280;24904;52.208;21.192;2023-05-22T18:59:01;100624.66;;;17.09;47.84
39177;BME280;24904;52.208;21.192;2023-05-22T19:04:11;100628.39;;;16.85;48.70
39177;BME280;24904;52.208;21.192;2023-05-22T19:09:22;100632.08;;;16.63;49.20
39177;BME280;24904;52.208;21.192;2023-05-22T19:14:27;100635.25;;;16.45;50.07
39177;BME280;24904;52.208;21.192;2023-05-22T19:19:31;100633.59;;;16.24;50.42
39177;BME280;24904;52.208;21.192;2023-05-22T19:24:40;100636.13;;;16.04;51.06
39177;BME280;24904;52.208;21.192;2023-05-22T19:29:44;100630.45;;;15.88;51.83
39177;BME280;24904;52.208;21.192;2023-05-22T19:34:48;100626.84;;;15.72;52.26
39177;BME280;24904;52.208;21.192;2023-05-22T19:39:52;100621.77;;;15.55;52.62
39177;BME280;24904;52.208;21.192;2023-05-22T19:44:57;100630.27;;;15.42;53.35
39177;BME280;24904;52.208;21.192;2023-05-22T19:50:04;100625.84;;;15.27;53.89
39177;BME280;24904;52.208;21.192;2023-05-22T19:55:10;100627.86;;;15.14;54.67
39177;BME280;24904;52.208;21.192;2023-05-22T20:00:17;100627.27;;;15.00;55.08
39177;BME280;24904;52.208;21.192;2023-05-22T20:05:26;100628.73;;;14.89;55.67
39177;BME280;24904;52.208;21.192;2023-05-22T20:10:37;100625.75;;;14.73;56.21
39177;BME280;24904;52.208;21.192;2023-05-22T20:15:44;100625.39;;;14.55;56.63
39177;BME280;24904;52.208;21.192;2023-05-22T20:20:52;100621.52;;;14.42;57.16
39177;BME280;24904;52.208;21.192;2023-05-22T20:26:03;100620.25;;;14.28;57.55
39177;BME280;24904;52.208;21.192;2023-05-22T20:31:10;100617.79;;;14.15;57.90
39177;BME280;24904;52.208;21.192;2023-05-22T20:36:14;100615.02;;;14.03;58.37
39177;BME280;24904;52.208;21.192;2023-05-22T20:41:24;100612.64;;;13.93;58.84
39177;BME280;24904;52.208;21.192;2023-05-22T20:46:30;100608.14;;;13.85;59.20
39177;BME280;24904;52.208;21.192;2023-05-22T20:51:38;100614.59;;;13.75;59.43
39177;BME280;24904;52.208;21.192;2023-05-22T20:56:43;100612.30;;;13.69;59.70
39177;BME280;24904;52.208;21.192;2023-05-22T21:01:50;100611.32;;;13.58;59.86
39177;BME280;24904;52.208;21.192;2023-05-22T21:06:55;100609.47;;;13.48;60.15
39177;BME280;24904;52.208;21.192;2023-05-22T21:12:00;100605.68;;;13.47;60.56
39177;BME280;24904;52.208;21.192;2023-05-22T21:17:05;100609.05;;;13.38;60.73
39177;BME280;24904;52.208;21.192;2023-05-22T21:22:10;100608.79;;;13.30;61.11
39177;BME280;24904;52.208;21.192;2023-05-22T21:27:16;100604.17;;;13.22;61.23
39177;BME280;24904;52.208;21.192;2023-05-22T21:32:21;100601.59;;;13.11;61.37
39177;BME280;24904;52.208;21.192;2023-05-22T21:37:29;100592.95;;;13.00;61.72
39177;BME280;24904;52.208;21.192;2023-05-22T21:42:34;100594.11;;;12.96;62.08
39177;BME280;24904;52.208;21.192;2023-05-22T21:47:39;100595.48;;;12.86;62.28
39177;BME280;24904;52.208;21.192;2023-05-22T21:52:48;100599.40;;;12.81;62.44
39177;BME280;24904;52.208;21.192;2023-05-22T21:57:55;100600.55;;;12.78;62.66
39177;BME280;24904;52.208;21.192;2023-05-22T22:03:01;100600.55;;;12.78;62.66
39177;BME280;24904;52.208;21.192;2023-05-22T22:08:07;100605.97;;;12.76;62.83
39177;BME280;24904;52.208;21.192;2023-05-22T22:13:13;100602.86;;;12.69;63.05
39177;BME280;24904;52.208;21.192;2023-05-22T22:18:19;100600.04;;;12.59;63.19
39177;BME280;24904;52.208;21.192;2023-05-22T22:23:24;100584.33;;;12.39;63.44
39177;BME280;24904;52.208;21.192;2023-05-22T22:28:30;100592.30;;;12.33;63.83
39177;BME280;24904;52.208;21.192;2023-05-22T22:33:39;100589.42;;;12.26;64.19
39177;BME280;24904;52.208;21.192;2023-05-22T22:38:48;100588.27;;;12.30;64.60
39177;BME280;24904;52.208;21.192;2023-05-22T22:43:53;100587.82;;;12.23;64.39
39177;BME280;24904;52.208;21.192;2023-05-22T22:49:00;100587.73;;;12.11;64.66
39177;BME280;24904;52.208;21.192;2023-05-22T22:54:11;100585.77;;;12.04;65.11
39177;BME280;24904;52.208;21.192;2023-05-22T22:59:17;100587.52;;;12.06;65.07
39177;BME280;24904;52.208;21.192;2023-05-22T23:04:25;100585.91;;;11.99;65.07
39177;BME280;24904;52.208;21.192;2023-05-22T23:09:32;100587.52;;;11.88;65.12
39177;BME280;24904;52.208;21.192;2023-05-22T23:14:38;100577.95;;;11.75;65.43
39177;BME280;24904;52.208;21.192;2023-05-22T23:19:44;100569.77;;;11.67;65.70
39177;BME280;24904;52.208;21.192;2023-05-22T23:24:51;100556.20;;;11.62;65.88
39177;BME280;24904;52.208;21.192;2023-05-22T23:29:59;100556.48;;;11.58;66.29
39177;BME280;24904;52.208;21.192;2023-05-22T23:35:07;100550.60;;;11.52;66.63
39177;BME280;24904;52.208;21.192;2023-05-22T23:40:17;100547.05;;;11.50;66.81
39177;BME280;24904;52.208;21.192;2023-05-22T23:45:27;100549.94;;;11.55;67.20
39177;BME280;24904;52.208;21.192;2023-05-22T23:50:36;100549.66;;;11.53;67.06
39177;BME280;24904;52.208;21.192;2023-05-22T23:55:48;100545.60;;;11.46;67.32
